Time;durP1;ratioP1;P1;durP2;ratioP2;P2;SDS_P1;SDS_P2;PMS_P1;PMS_P2;Temp;Humidity;BMP_temperature;BMP_pressure;BME280_temperature;BME280_humidity;BME280_pressure;Samples;Min_cycle;Max_cycle;Signal;HPM_P1;HPM_P2
2022/01/10 00:00:06;;;;;;;5.50;3.80;;;;;;;14.52;41.29;92435.28;4911822;28;20042;-84
2022/01/10 00:02:31;;;;;;;6.22;4.03;;;;;;;14.59;41.63;92440.91;4961713;28;20070;-84
2022/01/10 00:04:57;;;;;;;7.15;4.50;;;;;;;14.57;41.46;92445.38;4952018;28;20031;-84
2022/01/10 00:07:23;;;;;;;8.27;5.28;;;;;;;14.53;41.71;92450.34;4919607;28;20039;-84
2022/01/10 00:09:48;;;;;;;6.65;4.35;;;;;;;14.50;41.63;92452.13;4936155;28;20031;-84
2022/01/10 00:12:17;;;;;;;6.43;4.40;;;;;;;14.52;41.39;92449.59;4951685;28;20043;-84
2022/01/10 00:14:42;;;;;;;5.63;3.90;;;;;;;14.62;41.63;92444.59;4951941;28;20476;-84
2022/01/10 00:17:08;;;;;;;8.73;4.32;;;;;;;14.58;41.61;92453.03;4951537;28;20509;-84
2022/01/10 00:19:34;;;;;;;5.60;4.25;;;;;;;14.51;41.69;92450.13;4969240;28;20078;-84
2022/01/10 00:21:59;;;;;;;6.93;4.63;;;;;;;14.52;41.47;92452.31;4951975;28;20048;-84
2022/01/10 00:24:25;;;;;;;7.28;4.68;;;;;;;14.50;41.84;92460.28;4950604;28;20038;-84
2022/01/10 00:26:50;;;;;;;5.95;4.20;;;;;;;14.55;41.54;92456.00;4935768;28;20030;-84
2022/01/10 00:29:15;;;;;;;5.63;4.20;;;;;;;14.50;42.00;92459.53;4918978;28;20047;-84
2022/01/10 00:31:41;;;;;;;7.93;3.97;;;;;;;14.47;42.03;92461.28;4935585;28;20533;-83
2022/01/10 00:34:06;;;;;;;6.70;4.70;;;;;;;14.54;41.93;92462.69;4915940;28;20046;-84
2022/01/10 00:36:32;;;;;;;5.03;4.38;;;;;;;14.53;41.64;92470.13;4932684;29;20355;-84
2022/01/10 00:38:57;;;;;;;5.78;4.25;;;;;;;14.47;42.17;92463.28;4932093;29;20035;-84
2022/01/10 00:41:22;;;;;;;8.38;5.00;;;;;;;14.50;41.85;92468.44;4932258;28;20035;-84
2022/01/10 00:43:48;;;;;;;5.28;4.00;;;;;;;14.48;41.83;92470.19;4932303;28;20041;-84
2022/01/10 00:46:14;;;;;;;6.80;4.57;;;;;;;14.47;41.73;92471.44;4949463;28;20039;-84
2022/01/10 00:48:39;;;;;;;5.18;3.63;;;;;;;14.57;41.45;92475.28;4948687;28;20402;-83
2022/01/10 00:51:05;;;;;;;5.90;4.00;;;;;;;14.53;41.83;92477.53;4947553;28;20042;-84
2022/01/10 00:53:30;;;;;;;5.43;4.38;;;;;;;14.52;41.53;92473.34;4932498;29;20409;-84
2022/01/10 00:55:56;;;;;;;7.05;4.78;;;;;;;14.54;41.46;92484.44;4948651;28;20063;-84
2022/01/10 00:58:21;;;;;;;6.38;4.55;;;;;;;14.51;41.47;92480.75;4947687;28;20059;-84
2022/01/10 01:00:47;;;;;;;5.47;4.47;;;;;;;14.55;41.42;92491.38;4932428;28;20039;-84
2022/01/10 01:03:13;;;;;;;6.35;4.35;;;;;;;14.51;41.48;92494.38;4947392;28;20044;-84
2022/01/10 01:05:41;;;;;;;6.13;4.82;;;;;;;14.50;41.59;92482.03;4948128;28;20042;-84
2022/01/10 01:08:08;;;;;;;6.03;4.10;;;;;;;14.54;41.87;92490.63;4947640;28;20078;-84
2022/01/10 01:13:18;;;;;;;5.28;3.97;;;;;;;14.55;41.31;92489.38;4947737;28;20050;-84
2022/01/10 01:16:41;;;;;;;6.07;4.25;;;;;;;14.53;41.92;92493.84;4934853;29;20402;-84
2022/01/10 01:24:07;;;;;;;6.93;4.45;;;;;;;14.54;41.78;92496.06;4948098;28;20284;-84
2022/01/10 01:26:33;;;;;;;4.60;3.70;;;;;;;14.51;41.69;92488.19;4919862;28;20046;-85
2022/01/10 01:28:59;;;;;;;8.40;5.03;;;;;;;14.53;41.42;92496.56;4948032;28;20032;-84
2022/01/10 01:31:24;;;;;;;6.78;4.00;;;;;;;14.57;41.52;92494.31;4947617;28;20040;-84
2022/01/10 01:33:50;;;;;;;6.47;4.43;;;;;;;14.52;41.49;92504.00;4931842;28;20518;-84
2022/01/10 01:36:21;;;;;;;6.68;4.50;;;;;;;14.54;41.70;92500.78;4932218;28;20035;-84
2022/01/10 01:38:46;;;;;;;5.15;4.30;;;;;;;14.52;41.67;92509.44;4936585;28;20032;-84
2022/01/10 01:41:23;;;;;;;5.20;4.20;;;;;;;14.47;41.51;92512.22;4950487;28;20121;-84
2022/01/10 01:43:48;;;;;;;5.75;4.32;;;;;;;14.48;41.72;92506.28;4952138;28;20037;-84
2022/01/10 01:46:14;;;;;;;4.20;3.50;;;;;;;14.47;41.99;92506.78;4919157;28;20118;-84
2022/01/10 01:48:39;;;;;;;5.75;4.30;;;;;;;14.45;41.88;92512.72;4935376;28;20035;-84
2022/01/10 01:51:05;;;;;;;6.13;4.13;;;;;;;14.52;41.51;92508.69;4934339;28;20046;-84
2022/01/10 01:53:31;;;;;;;5.55;3.75;;;;;;;14.49;41.77;92507.75;4934923;29;20094;-84
2022/01/10 01:55:57;;;;;;;4.30;3.45;;;;;;;14.53;41.63;92512.91;4950996;28;20109;-84
2022/01/10 01:58:23;;;;;;;5.72;4.50;;;;;;;14.49;41.82;92512.44;4934623;28;20036;-84
2022/01/10 02:00:49;;;;;;;4.50;3.80;;;;;;;14.57;42.21;92507.91;4951136;28;20044;-84
2022/01/10 02:03:14;;;;;;;4.85;4.18;;;;;;;14.60;41.48;92513.09;4950526;28;20043;-84
2022/01/10 02:05:39;;;;;;;5.47;4.07;;;;;;;14.52;41.33;92514.88;4934879;29;20114;-84
2022/01/10 02:08:05;;;;;;;5.65;4.25;;;;;;;14.54;41.61;92514.38;4933866;28;20245;-84
2022/01/10 02:10:31;;;;;;;7.13;4.15;;;;;;;14.55;41.53;92511.16;4917323;29;20063;-84
2022/01/10 02:12:57;;;;;;;5.95;3.90;;;;;;;14.50;41.58;92513.94;4933594;29;20048;-84
2022/01/10 02:15:42;;;;;;;5.45;3.90;;;;;;;14.52;41.70;92514.13;4932911;28;20427;-84
2022/01/10 02:18:07;;;;;;;6.13;4.10;;;;;;;14.57;41.55;92521.50;4935608;28;20116;-84
2022/01/10 02:20:34;;;;;;;7.32;3.70;;;;;;;14.53;41.74;92521.06;4952265;28;20043;-84
2022/01/10 02:23:00;;;;;;;5.07;3.88;;;;;;;14.55;41.56;92527.47;4950910;28;20502;-84
2022/01/10 02:25:25;;;;;;;6.00;3.80;;;;;;;14.52;41.46;92517.59;4949863;28;20043;-84
2022/01/10 02:27:51;;;;;;;6.75;3.92;;;;;;;14.49;41.64;92529.50;4950963;28;20066;-83
2022/01/10 02:30:16;;;;;;;8.85;3.63;;;;;;;14.48;41.72;92532.72;4934008;28;20062;-84
2022/01/10 02:32:41;;;;;;;5.95;4.30;;;;;;;14.50;41.73;92535.69;4934597;28;20043;-84
2022/01/10 02:35:39;;;;;;;6.20;4.57;;;;;;;14.51;41.58;92529.72;4933648;28;20242;-84
2022/01/10 02:38:04;;;;;;;5.13;4.55;;;;;;;14.49;41.73;92534.22;4950309;28;20039;-83
2022/01/10 02:40:31;;;;;;;5.10;4.05;;;;;;;14.58;41.33;92539.31;4949746;28;20086;-84
2022/01/10 02:42:57;;;;;;;6.40;4.38;;;;;;;14.48;41.85;92528.03;4934827;28;20047;-85
2022/01/10 02:45:22;;;;;;;5.55;3.55;;;;;;;14.47;41.66;92534.72;4917834;28;20050;-84
2022/01/10 02:47:48;;;;;;;5.28;3.80;;;;;;;14.49;41.59;92536.94;4917560;29;20039;-83
2022/01/10 02:50:14;;;;;;;5.22;3.95;;;;;;;14.58;41.55;92539.31;4949546;28;20040;-84
2022/01/10 02:52:39;;;;;;;5.10;3.67;;;;;;;14.56;41.27;92533.63;4934173;28;20380;-84
2022/01/10 02:55:05;;;;;;;6.03;4.20;;;;;;;14.50;41.59;92538.41;4949160;28;20749;-84
2022/01/10 02:57:31;;;;;;;4.70;3.70;;;;;;;14.53;41.81;92545.53;4950688;28;20046;-83
2022/01/10 02:59:57;;;;;;;5.53;3.83;;;;;;;14.55;41.42;92546.50;4933972;28;20043;-84
2022/01/10 03:02:27;;;;;;;6.53;4.82;;;;;;;14.54;41.29;92545.03;4917523;28;20047;-84
2022/01/10 03:04:52;;;;;;;5.47;3.87;;;;;;;14.55;41.34;92537.59;4948862;28;20035;-84
2022/01/10 03:07:18;;;;;;;4.22;3.13;;;;;;;14.48;41.72;92543.59;4932925;28;20051;-85
2022/01/10 03:09:43;;;;;;;5.88;4.25;;;;;;;14.52;41.51;92552.94;4934050;28;20031;-84
2022/01/10 03:12:09;;;;;;;5.47;3.67;;;;;;;14.49;41.73;92556.69;4933117;28;20039;-84
2022/01/10 03:14:36;;;;;;;4.70;3.95;;;;;;;14.54;41.65;92553.19;4918263;29;20654;-84
2022/01/10 03:17:02;;;;;;;5.18;4.32;;;;;;;14.56;41.92;92561.56;4933656;28;20335;-84
2022/01/10 03:19:28;;;;;;;5.57;3.53;;;;;;;14.50;41.56;92563.63;4933600;28;20567;-84
2022/01/10 03:21:53;;;;;;;6.35;3.58;;;;;;;14.50;41.71;92568.31;4933622;29;20039;-84
2022/01/10 03:24:19;;;;;;;6.63;4.32;;;;;;;14.52;41.58;92566.53;4950422;28;20027;-84
2022/01/10 03:26:44;;;;;;;6.25;4.50;;;;;;;14.52;41.67;92560.38;4949657;28;20036;-84
2022/01/10 03:29:09;;;;;;;4.63;3.65;;;;;;;14.47;42.03;92564.63;4948869;28;20047;-83
2022/01/10 03:31:35;;;;;;;6.43;4.20;;;;;;;14.51;41.64;92573.22;4933769;28;20495;-84
2022/01/10 03:34:01;;;;;;;5.05;3.95;;;;;;;14.55;41.44;92568.25;4933652;28;20039;-84
2022/01/10 03:36:26;;;;;;;5.65;4.05;;;;;;;14.55;41.37;92568.25;4948699;28;20505;-83
2022/01/10 03:38:52;;;;;;;4.25;3.22;;;;;;;14.50;41.75;92568.31;4950505;28;20031;-84
2022/01/10 03:41:17;;;;;;;6.03;4.45;;;;;;;14.57;41.41;92573.94;4932497;28;20039;-84
2022/01/10 03:43:42;;;;;;;5.22;3.63;;;;;;;14.55;41.60;92570.25;4933647;29;20051;-84
2022/01/10 03:46:08;;;;;;;5.43;3.72;;;;;;;14.50;41.65;92581.91;4948588;28;20398;-84
2022/01/10 03:48:33;;;;;;;5.55;3.72;;;;;;;14.53;41.80;92586.31;4949667;28;20047;-84
2022/01/10 03:50:58;;;;;;;4.07;3.45;;;;;;;14.55;41.60;92578.41;4932954;28;20037;-84
2022/01/10 03:53:24;;;;;;;5.13;3.35;;;;;;;14.50;41.67;92590.81;4931996;28;20051;-84
2022/01/10 03:55:50;;;;;;;4.95;3.50;;;;;;;14.49;41.59;92583.91;4933545;28;20039;-84
2022/01/10 03:58:15;;;;;;;4.88;3.95;;;;;;;14.48;41.89;92590.56;4932502;28;20035;-84
2022/01/10 04:00:41;;;;;;;5.20;3.47;;;;;;;14.52;41.50;92596.47;4933144;28;20387;-84
2022/01/10 04:03:07;;;;;;;4.95;3.78;;;;;;;14.53;41.63;92600.66;4949489;28;20085;-84
2022/01/10 04:05:32;;;;;;;6.50;3.83;;;;;;;14.50;41.89;92592.78;4929287;28;20095;-84
2022/01/10 04:07:58;;;;;;;5.78;4.10;;;;;;;14.49;41.83;92599.47;4929680;28;20460;-84
2022/01/10 04:10:23;;;;;;;4.55;3.72;;;;;;;14.48;41.86;92604.16;4929666;28;20051;-84
2022/01/10 04:12:49;;;;;;;7.43;4.15;;;;;;;14.48;41.54;92612.31;4913796;29;20047;-83
2022/01/10 04:15:14;;;;;;;4.00;3.60;;;;;;;14.48;41.49;92600.72;4912948;28;20040;-84
2022/01/10 04:17:39;;;;;;;5.43;3.92;;;;;;;14.53;41.36;92613.50;4914117;29;20122;-83
2022/01/10 04:20:05;;;;;;;5.60;3.97;;;;;;;14.51;41.40;92624.88;4913621;28;20058;-84
2022/01/10 04:22:31;;;;;;;5.47;3.83;;;;;;;14.49;41.78;92613.06;4913202;29;20517;-84
2022/01/10 04:24:56;;;;;;;5.80;4.10;;;;;;;14.48;41.63;92625.19;4929088;28;20044;-84
2022/01/10 04:27:22;;;;;;;4.20;3.50;;;;;;;14.44;41.72;92632.88;4912852;28;20417;-84
2022/01/10 04:29:47;;;;;;;4.90;3.20;;;;;;;14.51;41.70;92624.88;4898307;29;20035;-84
2022/01/10 04:32:12;;;;;;;4.72;4.03;;;;;;;14.52;41.71;92628.34;4915057;28;20091;-84
2022/01/10 04:34:39;;;;;;;4.68;3.97;;;;;;;14.50;41.45;92642.47;4932499;28;20433;-84
2022/01/10 04:37:04;;;;;;;3.90;3.28;;;;;;;14.51;41.27;92638.50;4931438;28;20041;-84
2022/01/10 04:39:29;;;;;;;5.75;3.88;;;;;;;14.51;41.76;92645.91;4943152;28;20039;-84
2022/01/10 04:41:55;;;;;;;5.03;3.95;;;;;;;14.53;41.30;92654.31;4935735;28;20580;-84
2022/01/10 04:44:21;;;;;;;5.20;3.70;;;;;;;14.52;41.68;92660.97;4919458;28;20046;-84
2022/01/10 04:46:47;;;;;;;6.50;3.72;;;;;;;14.50;41.70;92666.22;4951468;28;20097;-84
2022/01/10 04:49:21;;;;;;;5.00;3.67;;;;;;;14.51;41.72;92664.94;4919032;28;20066;-84
2022/01/10 04:51:47;;;;;;;4.65;4.13;;;;;;;14.51;41.69;92664.94;4937908;28;20047;-84
2022/01/10 04:54:12;;;;;;;4.53;3.60;;;;;;;14.54;41.68;92672.84;4934853;28;20039;-83
2022/01/10 04:56:38;;;;;;;5.57;4.07;;;;;;;14.50;41.50;92675.13;4935690;28;20042;-84
2022/01/10 04:59:03;;;;;;;4.38;3.45;;;;;;;14.52;41.69;92675.31;4934792;28;20065;-84
2022/01/10 05:01:28;;;;;;;4.47;3.42;;;;;;;14.53;41.55;92681.50;4933185;28;20043;-84
2022/01/10 05:03:54;;;;;;;4.85;3.15;;;;;;;14.50;41.62;92683.28;4969359;28;20038;-84
2022/01/10 05:06:19;;;;;;;3.75;3.17;;;;;;;14.52;41.47;92688.91;4918850;28;20031;-84
2022/01/10 05:08:45;;;;;;;4.80;3.67;;;;;;;14.57;41.23;92696.31;4935538;28;20030;-84
2022/01/10 05:11:10;;;;;;;4.63;3.40;;;;;;;14.54;41.66;92691.88;4951141;28;20039;-84
2022/01/10 05:13:35;;;;;;;4.85;3.35;;;;;;;14.53;41.70;92703.25;4955422;28;20062;-84
2022/01/10 05:16:01;;;;;;;5.15;4.13;;;;;;;14.54;41.59;92694.59;4971927;28;20038;-83
2022/01/10 05:18:26;;;;;;;424.27;327.33;;;;;;;14.63;41.72;92701.72;4944195;28;20043;-84
2022/01/10 05:20:52;;;;;;;10.43;7.30;;;;;;;14.59;41.79;92704.72;4959677;28;20035;-85
2022/01/10 05:23:17;;;;;;;105.40;70.97;;;;;;;14.67;42.00;92702.22;4929115;28;20577;-84
2022/01/10 05:25:43;;;;;;;8.77;5.70;;;;;;;14.56;41.58;92703.00;4961357;28;20497;-84
2022/01/10 05:28:09;;;;;;;7.15;4.70;;;;;;;14.59;41.50;92714.84;4944120;28;20031;-85
2022/01/10 05:30:35;;;;;;;5.40;4.07;;;;;;;14.69;41.94;92707.88;4943673;28;20043;-85
2022/01/10 05:33:01;;;;;;;9.13;6.28;;;;;;;14.72;41.79;92706.88;4963677;28;20660;-86
2022/01/10 05:35:26;;;;;;;30.02;26.65;;;;;;;14.77;41.50;92708.06;4911575;29;20565;-87
2022/01/10 05:37:52;;;;;;;54.35;35.92;;;;;;;14.77;41.56;92716.97;4948280;28;20043;-86
2022/01/10 05:40:19;;;;;;;17.05;10.60;;;;;;;14.85;41.60;92719.91;4942170;28;20510;-85
2022/01/10 05:42:44;;;;;;;12.40;8.63;;;;;;;14.84;41.90;92726.59;4934615;28;20366;-85
2022/01/10 05:45:10;;;;;;;11.07;7.68;;;;;;;14.86;41.57;92727.56;4934995;28;20031;-87
2022/01/10 05:47:40;;;;;;;20.50;8.90;;;;;;;14.79;41.48;92728.09;4936867;28;20039;-90
2022/01/10 05:50:06;;;;;;;14.15;8.07;;;;;;;14.66;41.49;92736.84;4922586;28;20103;-84
2022/01/10 05:52:32;;;;;;;16.77;9.35;;;;;;;14.70;41.46;92731.88;4952779;28;20533;-89
2022/01/10 05:54:57;;;;;;;22.95;10.60;;;;;;;14.75;41.41;92747.41;4919371;28;20070;-84
2022/01/10 05:57:23;;;;;;;36.40;15.63;;;;;;;14.78;41.22;92750.38;4929128;28;20883;-86
2022/01/10 05:59:48;;;;;;;28.35;13.85;;;;;;;14.73;41.63;92752.59;4918077;29;20352;-82
2022/01/10 06:02:14;;;;;;;38.80;13.05;;;;;;;14.72;41.57;92747.69;4947479;28;20133;-86
2022/01/10 06:04:39;;;;;;;36.55;12.82;;;;;;;14.70;41.57;92744.72;4947813;28;20431;-86
2022/01/10 06:07:05;;;;;;;57.90;12.73;;;;;;;14.73;41.60;92757.31;4929807;28;20762;-86
2022/01/10 06:09:33;;;;;;;80.45;14.68;;;;;;;14.70;41.50;92750.19;4949448;28;20403;-86
2022/01/10 06:11:59;;;;;;;62.97;15.88;;;;;;;14.82;41.41;92748.13;4929271;28;20051;-87
2022/01/10 06:14:24;;;;;;;70.18;15.10;;;;;;;14.73;40.53;92760.75;4932835;28;20381;-85
2022/01/10 06:16:49;;;;;;;48.28;9.30;;;;;;;14.69;38.00;92765.00;4935479;28;20050;-85
2022/01/10 06:19:15;;;;;;;32.75;7.25;;;;;;;14.58;36.51;92765.06;4933568;28;20035;-85
2022/01/10 06:21:42;;;;;;;32.28;8.10;;;;;;;14.50;35.65;92775.00;4933961;28;20474;-85
2022/01/10 06:24:07;;;;;;;30.77;7.45;;;;;;;14.49;36.28;92781.66;4931183;28;20067;-83
2022/01/10 06:26:33;;;;;;;35.38;8.70;;;;;;;14.50;36.61;92789.34;4921545;28;20521;-84
2022/01/10 06:28:58;;;;;;;42.42;9.75;;;;;;;14.58;37.58;92784.84;4933683;28;20120;-83
2022/01/10 06:31:24;;;;;;;56.38;12.27;;;;;;;14.59;38.88;92786.31;4947949;28;20072;-84
2022/01/10 06:33:49;;;;;;;43.75;12.43;;;;;;;14.62;39.42;92793.47;4949923;28;20491;-86
2022/01/10 06:36:15;;;;;;;33.97;9.05;;;;;;;14.68;39.77;92799.63;4931257;28;20380;-85
2022/01/10 06:38:40;;;;;;;36.47;9.35;;;;;;;14.67;39.34;92811.03;4950626;28;20031;-86
2022/01/10 06:41:05;;;;;;;33.08;8.23;;;;;;;14.57;38.72;92813.28;4931999;28;20040;-85
2022/01/10 06:43:31;;;;;;;32.80;8.95;;;;;;;14.54;39.23;92808.81;4932635;29;20550;-86
2022/01/10 06:45:57;;;;;;;104.00;19.42;;;;;;;14.57;39.21;92818.72;4949392;28;20065;-86
2022/01/10 06:48:22;;;;;;;92.25;18.55;;;;;;;14.59;39.45;92827.09;4910455;29;20511;-86
2022/01/10 06:50:48;;;;;;;69.07;18.33;;;;;;;14.57;39.73;92826.88;4932259;28;20109;-86
2022/01/10 06:53:14;;;;;;;121.70;24.23;;;;;;;14.59;39.89;92834.53;4931770;28;20426;-85
2022/01/10 06:55:40;;;;;;;65.43;15.57;;;;;;;14.67;39.79;92830.06;4929360;28;20036;-87
2022/01/10 06:58:05;;;;;;;43.70;16.73;;;;;;;14.68;39.67;92840.44;4919938;28;20042;-87
2022/01/10 07:00:31;;;;;;;81.95;24.55;;;;;;;14.60;39.60;92839.47;4945968;28;20051;-86
2022/01/10 07:02:56;;;;;;;122.50;25.58;;;;;;;14.51;37.94;92844.44;4909636;29;20048;-88
2022/01/10 07:05:22;;;;;;;100.13;21.85;;;;;;;14.42;37.98;92847.44;4912099;28;20053;-84
2022/01/10 07:07:47;;;;;;;93.40;18.50;;;;;;;14.55;38.70;92853.81;4947635;28;20647;-84
2022/01/10 07:10:13;;;;;;;104.07;19.95;;;;;;;14.58;38.99;92862.97;4939988;28;20384;-84
2022/01/10 07:12:38;;;;;;;77.15;18.02;;;;;;;14.57;39.01;92864.94;4940668;28;20402;-85
2022/01/10 07:15:04;;;;;;;60.58;18.23;;;;;;;14.57;39.10;92864.22;4935050;28;20127;-85
2022/01/10 07:17:30;;;;;;;42.08;17.83;;;;;;;14.59;39.38;92862.47;4915557;29;20048;-86
2022/01/10 07:19:55;;;;;;;47.15;18.17;;;;;;;14.58;39.08;92871.13;4915750;28;20031;-84
2022/01/10 07:22:21;;;;;;;46.97;17.15;;;;;;;14.64;39.61;92871.88;4944433;28;20454;-86
2022/01/10 07:24:46;;;;;;;55.40;19.00;;;;;;;14.61;39.37;92887.19;4933474;28;20031;-85
2022/01/10 07:27:11;;;;;;;43.22;17.92;;;;;;;14.60;39.21;92883.00;4957426;28;20094;-85
2022/01/10 07:29:37;;;;;;;41.25;17.25;;;;;;;14.63;39.60;92892.13;4933639;28;20039;-85
2022/01/10 07:32:05;;;;;;;39.85;16.77;;;;;;;14.68;39.71;92894.13;4949846;28;20492;-86
2022/01/10 07:34:30;;;;;;;58.05;23.05;;;;;;;14.68;39.59;92894.13;4921017;28;20047;-85
2022/01/10 07:36:56;;;;;;;130.80;36.88;;;;;;;14.75;39.41;92896.31;4952972;28;20035;-86
2022/01/10 07:39:21;;;;;;;63.05;27.85;;;;;;;14.76;39.32;92886.91;4930353;28;21016;-86
2022/01/10 07:41:47;;;;;;;98.90;38.58;;;;;;;14.77;39.42;92899.25;4924700;28;20046;-85
2022/01/10 07:44:12;;;;;;;99.80;36.33;;;;;;;14.77;39.26;92901.25;4959867;28;20038;-87
2022/01/10 07:46:38;;;;;;;107.40;29.50;;;;;;;14.82;39.34;92914.84;4968154;28;20051;-88
2022/01/10 07:49:04;;;;;;;110.88;38.13;;;;;;;14.80;39.15;92919.28;4956386;28;20399;-87
2022/01/10 07:51:29;;;;;;;98.00;42.17;;;;;;;14.85;39.23;92913.09;4917310;28;20062;-86
2022/01/10 07:53:55;;;;;;;126.22;59.05;;;;;;;14.86;39.27;92923.50;4923423;28;20050;-86
2022/01/10 07:56:20;;;;;;;98.85;43.75;;;;;;;14.88;39.18;92926.47;4936589;28;20051;-85
2022/01/10 07:58:50;;;;;;;111.93;49.95;;;;;;;14.91;38.94;92925.47;4953622;28;20082;-86
2022/01/10 08:01:16;;;;;;;141.48;60.03;;;;;;;14.88;39.47;92931.16;4952487;28;20489;-87
2022/01/10 08:03:41;;;;;;;122.05;58.00;;;;;;;14.83;39.70;92929.94;4918085;29;20101;-86
2022/01/10 08:06:10;;;;;;;123.85;53.63;;;;;;;14.87;39.34;92932.41;4933188;28;20412;-86
2022/01/10 08:08:36;;;;;;;133.38;61.15;;;;;;;14.82;39.80;92933.16;4925468;28;20054;-85
2022/01/10 08:11:01;;;;;;;126.60;53.72;;;;;;;14.86;39.76;92928.19;4949678;28;20039;-88
2022/01/10 08:13:28;;;;;;;109.05;50.47;;;;;;;14.84;39.46;92931.41;4944945;28;20579;-85
2022/01/10 08:15:53;;;;;;;118.63;52.28;;;;;;;14.87;39.59;92924.97;4936366;28;20113;-85
2022/01/10 08:18:19;;;;;;;114.75;52.08;;;;;;;14.88;39.39;92940.06;4951288;28;20046;-84
2022/01/10 08:20:44;;;;;;;105.95;49.53;;;;;;;14.93;39.49;92944.75;4931030;28;20097;-86
2022/01/10 08:23:10;;;;;;;116.05;50.55;;;;;;;14.90;39.54;92959.34;4947037;28;20031;-84
2022/01/10 08:25:35;;;;;;;111.35;51.47;;;;;;;14.94;39.49;92946.22;4932143;28;20062;-85
2022/01/10 08:28:00;;;;;;;111.35;49.95;;;;;;;14.97;39.46;92953.38;4953406;28;20473;-87
2022/01/10 08:30:26;;;;;;;112.63;49.42;;;;;;;14.94;39.40;92962.53;4952052;28;20800;-86
2022/01/10 08:32:51;;;;;;;123.72;50.47;;;;;;;14.96;39.39;92962.78;4956938;28;20454;-86
2022/01/10 08:35:18;;;;;;;110.70;50.40;;;;;;;14.89;39.75;92974.19;4947819;28;20047;-91
2022/01/10 08:37:44;;;;;;;118.05;48.53;;;;;;;14.91;39.70;92960.84;4951232;28;20458;-89
2022/01/10 08:40:11;;;;;;;106.10;48.30;;;;;;;14.98;39.54;92968.47;4929750;28;20043;-86
2022/01/10 08:42:38;;;;;;;112.50;46.15;;;;;;;15.01;39.21;92967.47;4944765;28;20066;-89
2022/01/10 08:45:08;;;;;;;117.38;48.10;;;;;;;14.93;39.70;92968.50;4917127;28;20085;-86
2022/01/10 08:47:34;;;;;;;110.80;51.13;;;;;;;14.97;39.79;92968.97;4951683;28;20098;-88
2022/01/10 08:50:01;;;;;;;93.43;50.25;;;;;;;15.00;39.74;92982.31;4953243;28;20051;-86
2022/01/10 08:52:27;;;;;;;111.30;50.17;;;;;;;14.97;39.64;92988.03;4922221;28;20049;-86
2022/01/10 08:54:52;;;;;;;122.53;62.75;;;;;;;15.00;39.73;92982.31;4961864;28;20043;-86
2022/01/10 08:57:18;;;;;;;115.82;56.20;;;;;;;14.97;39.50;92977.13;4939424;28;20047;-91
2022/01/10 08:59:43;;;;;;;157.57;91.88;;;;;;;15.00;39.58;92993.22;4955142;28;20039;-88
2022/01/10 09:02:09;;;;;;;144.57;83.85;;;;;;;15.02;39.57;92988.00;4945250;28;20035;-89
2022/01/10 09:04:34;;;;;;;281.02;132.80;;;;;;;14.97;39.81;92996.94;4926459;29;20040;-91
2022/01/10 09:07:02;;;;;;;215.55;91.97;;;;;;;15.05;39.56;93008.06;4952240;28;20408;-83
2022/01/10 09:09:30;;;;;;;166.48;77.00;;;;;;;15.00;39.54;93008.81;4934693;29;20518;-85
2022/01/10 09:11:55;;;;;;;179.63;90.80;;;;;;;15.08;39.47;93002.38;4930140;28;20055;-83
2022/01/10 09:14:21;;;;;;;193.45;91.28;;;;;;;15.11;39.38;93011.50;4947678;28;20040;-87
2022/01/10 09:16:46;;;;;;;169.00;80.28;;;;;;;15.06;39.54;93018.44;4910885;28;20043;-86
2022/01/10 09:19:11;;;;;;;152.10;74.45;;;;;;;15.11;39.76;93019.69;4931058;28;20043;-85
2022/01/10 09:21:40;;;;;;;174.75;82.47;;;;;;;15.11;39.64;93021.66;4917252;29;20063;-86
2022/01/10 09:24:06;;;;;;;166.68;82.15;;;;;;;15.07;39.57;93017.22;4951136;28;20043;-85
2022/01/10 09:26:31;;;;;;;118.47;65.43;;;;;;;15.14;39.57;93032.31;4935879;28;20573;-86
2022/01/10 09:28:56;;;;;;;146.75;79.55;;;;;;;15.07;39.94;93036.25;4936529;28;20058;-87
2022/01/10 09:31:22;;;;;;;163.40;83.95;;;;;;;15.03;39.54;93029.59;4929858;28;20047;-88
2022/01/10 09:33:52;;;;;;;202.05;95.22;;;;;;;15.07;39.78;93036.25;4930130;28;20784;-86
2022/01/10 09:36:18;;;;;;;195.18;101.38;;;;;;;15.06;39.77;93040.22;4952951;28;20050;-87
2022/01/10 09:38:43;;;;;;;190.23;102.40;;;;;;;15.06;39.59;93040.22;4928905;28;20035;-86
2022/01/10 09:41:09;;;;;;;196.55;99.35;;;;;;;15.04;39.79;93048.16;4933725;28;20414;-85
2022/01/10 09:43:34;;;;;;;170.02;89.00;;;;;;;15.08;39.90;93056.06;4951698;28;20053;-86
2022/01/10 09:46:00;;;;;;;173.70;83.55;;;;;;;15.12;39.74;93059.28;4945002;28;20716;-87
2022/01/10 09:48:25;;;;;;;201.93;93.28;;;;;;;15.11;39.69;93048.88;4919345;28;20376;-85
2022/01/10 09:50:51;;;;;;;177.93;88.10;;;;;;;15.13;39.68;93054.56;4927573;28;20706;-85
2022/01/10 09:53:17;;;;;;;170.80;86.45;;;;;;;15.14;39.52;93062.25;4965248;28;20042;-86
2022/01/10 09:55:43;;;;;;;204.68;97.57;;;;;;;15.19;39.98;93060.72;4951661;28;20047;-86
2022/01/10 09:58:09;;;;;;;210.45;108.85;;;;;;;15.15;39.53;93071.16;4910272;28;20041;-88
2022/01/10 10:00:34;;;;;;;210.32;109.20;;;;;;;15.23;39.49;93072.13;4910728;29;20404;-86
2022/01/10 10:03:00;;;;;;;244.18;123.10;;;;;;;15.17;39.81;93065.94;4914261;29;20066;-84
2022/01/10 10:05:25;;;;;;;261.98;136.90;;;;;;;15.16;39.61;93069.91;4918914;28;20098;-85
2022/01/10 10:07:51;;;;;;;275.15;133.43;;;;;;;15.12;39.82;93074.88;4934848;28;20050;-86
2022/01/10 10:10:17;;;;;;;232.07;120.45;;;;;;;15.13;39.74;93073.63;4918308;28;20039;-85
2022/01/10 10:12:45;;;;;;;220.90;112.78;;;;;;;15.17;40.03;93068.66;4932668;28;20091;-86
2022/01/10 10:15:12;;;;;;;256.75;123.10;;;;;;;15.23;39.83;93072.13;4917205;28;20051;-85
2022/01/10 10:17:38;;;;;;;218.02;109.32;;;;;;;15.28;39.50;93077.56;4937153;28;20082;-85
2022/01/10 10:20:12;;;;;;;206.30;100.30;;;;;;;15.24;39.62;93073.59;4950292;28;20046;-87
2022/01/10 10:22:42;;;;;;;214.63;107.07;;;;;;;15.18;39.91;93076.31;4918270;29;20118;-86
2022/01/10 10:25:07;;;;;;;206.23;100.45;;;;;;;15.18;39.84;93070.13;4947991;28;20074;-87
2022/01/10 10:27:37;;;;;;;191.40;91.20;;;;;;;15.21;39.94;93072.63;4937521;28;20423;-90
2022/01/10 10:30:05;;;;;;;184.20;93.90;;;;;;;15.18;39.83;93078.31;4938858;28;20122;-84
2022/01/10 10:32:31;;;;;;;197.07;97.82;;;;;;;15.23;39.69;93085.72;4918820;29;20087;-85
2022/01/10 10:34:57;;;;;;;200.25;98.72;;;;;;;15.22;39.75;93085.00;4918157;28;20035;-83
2022/01/10 10:37:22;;;;;;;185.38;94.35;;;;;;;15.15;40.12;93085.50;4961976;28;20478;-85
2022/01/10 10:39:47;;;;;;;217.63;99.65;;;;;;;15.17;40.19;93083.00;4947433;28;20067;-85
2022/01/10 10:42:15;;;;;;;188.38;93.38;;;;;;;15.15;39.79;93084.78;4931029;28;20043;-85
2022/01/10 10:44:42;;;;;;;184.13;90.05;;;;;;;15.16;40.11;93095.13;4936013;28;20122;-84
2022/01/10 10:47:08;;;;;;;171.63;87.22;;;;;;;15.16;40.12;93097.13;4927917;28;20469;-85
2022/01/10 10:49:38;;;;;;;173.63;85.15;;;;;;;15.14;40.08;93097.66;4933763;28;20039;-85
2022/01/10 10:52:06;;;;;;;163.27;82.57;;;;;;;15.21;40.09;93104.53;4933233;28;20175;-84
2022/01/10 10:54:32;;;;;;;168.10;82.65;;;;;;;15.24;39.96;93098.09;4916151;29;20031;-86
2022/01/10 10:57:01;;;;;;;179.32;90.57;;;;;;;15.18;40.10;93100.09;4916186;28;20054;-87
2022/01/10 10:59:30;;;;;;;174.30;85.15;;;;;;;15.22;40.30;93106.78;4933393;28;20036;-83
2022/01/10 11:01:55;;;;;;;187.50;94.43;;;;;;;15.15;40.10;93099.13;4949438;28;20039;-84
2022/01/10 11:04:21;;;;;;;179.73;89.85;;;;;;;15.18;40.05;93110.97;4932057;28;20130;-83
2022/01/10 11:06:46;;;;;;;174.43;86.22;;;;;;;15.23;40.00;93107.50;4949876;28;20044;-85
2022/01/10 11:09:13;;;;;;;160.35;81.75;;;;;;;15.22;40.04;93114.19;4927415;28;20039;-84
2022/01/10 11:11:40;;;;;;;173.10;93.80;;;;;;;15.17;40.47;93121.13;4950841;28;20475;-86
2022/01/10 11:14:05;;;;;;;171.20;92.35;;;;;;;15.24;40.13;93126.09;4938250;28;20099;-89
2022/01/10 11:16:31;;;;;;;179.77;97.05;;;;;;;15.23;40.55;93129.31;4922599;28;20035;-88
2022/01/10 11:18:57;;;;;;;152.75;86.40;;;;;;;15.26;40.72;93128.31;4940180;28;20049;-85
2022/01/10 11:21:25;;;;;;;161.90;86.97;;;;;;;15.31;40.17;93130.28;4917760;28;20036;-86
2022/01/10 11:23:52;;;;;;;153.23;82.55;;;;;;;15.33;40.24;93130.53;4921487;28;20047;-86